Ashmore, Illinois
Current Conditions -  °F | °C
As of 4:53 AM on Sunday 26 Oct 2014 (Local Time) from KMTO Reporting Station
Clear Clear  
Wind Chill: 45°   Ceiling: Unl
Heat Index: 47°   Visibility: 10mi
Dew Point: 36°   Wind: 5mph
Humidity: 66%   Direction: 360°N
Pressure: 30.02"   Gusts: NA
Location:  39.53°N, 88.02°W
Report Text: KMTO 260953Z AUTO 36004KT 10SM CLR 08/02 A3002 RMK AO2 SLP163 T00830022
Loading
Personal Weather Stations






























Interactive Weather Map
Tropical Storm Tracking
New forecast layout! Learn more

10-Day Weather Forecast

Advertisements
Track Severe Weather on mobile